createdAt,value
2019-02-07T00:01:54.839Z,25.07
2019-02-07T00:04:27.494Z,22.60
2019-02-07T00:07:00.195Z,23.13
2019-02-07T00:09:33.249Z,22.60
2019-02-07T00:12:05.898Z,23.03
2019-02-07T00:14:39.986Z,21.00
2019-02-07T00:17:12.771Z,22.43
2019-02-07T00:19:45.411Z,22.90
2019-02-07T00:22:18.049Z,21.87
2019-02-07T00:24:50.694Z,20.30
2019-02-07T00:27:23.358Z,21.30
2019-02-07T00:29:56.071Z,19.73
2019-02-07T00:32:29.110Z,19.97
2019-02-07T00:35:01.750Z,19.60
2019-02-07T00:37:34.406Z,20.07
2019-02-07T00:40:10.253Z,22.27
2019-02-07T00:42:42.929Z,20.07
2019-02-07T00:45:15.575Z,24.87
2019-02-07T00:47:48.223Z,22.47
2019-02-07T00:50:20.842Z,20.63
2019-02-07T00:52:53.480Z,20.33
2019-02-07T00:55:26.486Z,19.40
2019-02-07T00:57:59.116Z,21.63
2019-02-07T01:00:31.734Z,21.63
2019-02-07T01:03:04.367Z,22.20
2019-02-07T01:05:36.993Z,22.53
2019-02-07T01:08:09.642Z,24.97
2019-02-07T01:10:42.258Z,25.30
2019-02-07T01:13:14.885Z,25.83
2019-02-07T01:15:47.533Z,25.17
2019-02-07T01:18:20.295Z,24.53
2019-02-07T01:20:52.923Z,27.27
2019-02-07T01:23:25.554Z,28.00
2019-02-07T01:25:58.185Z,26.87
2019-02-07T01:28:30.825Z,27.27
2019-02-07T01:31:03.863Z,27.70
2019-02-07T01:33:36.494Z,25.63
2019-02-07T01:36:09.108Z,27.77
2019-02-07T01:38:41.778Z,25.23
2019-02-07T01:41:14.447Z,26.77
2019-02-07T01:43:47.077Z,23.77
2019-02-07T01:46:19.702Z,27.23
2019-02-07T01:48:52.334Z,25.43
2019-02-07T01:51:24.949Z,29.37
2019-02-07T01:53:57.594Z,29.17
2019-02-07T01:56:30.222Z,27.43
2019-02-07T01:59:02.850Z,25.97
2019-02-07T02:01:35.470Z,29.13
2019-02-07T02:04:08.097Z,25.40
2019-02-07T02:06:41.094Z,29.10
2019-02-07T02:09:13.749Z,28.53
2019-02-07T02:11:46.357Z,31.77
2019-02-07T02:14:18.989Z,27.53
2019-02-07T02:16:51.616Z,29.10
2019-02-07T02:19:24.240Z,28.50
2019-02-07T02:21:56.868Z,30.77
2019-02-07T02:24:29.489Z,32.27
2019-02-07T02:27:02.122Z,28.73
2019-02-07T02:29:34.765Z,31.87
2019-02-07T02:32:07.463Z,33.10
2019-02-07T02:34:40.116Z,31.87
2019-02-07T02:37:12.795Z,29.60
2019-02-07T02:39:45.458Z,31.50
2019-02-07T02:42:18.458Z,30.80
2019-02-07T02:44:51.085Z,36.33
2019-02-07T02:47:23.710Z,27.90
2019-02-07T02:49:56.343Z,30.43
2019-02-07T02:52:28.965Z,37.33
2019-02-07T02:55:01.805Z,34.90
2019-02-07T02:57:34.426Z,34.67
2019-02-07T03:00:09.009Z,29.53
2019-02-07T03:02:41.630Z,27.73
2019-02-07T03:05:14.642Z,33.30
2019-02-07T03:07:47.308Z,32.60
2019-02-07T03:10:19.937Z,33.30
2019-02-07T03:12:52.557Z,27.63
2019-02-07T03:15:25.206Z,31.33
2019-02-07T03:17:57.826Z,33.83
2019-02-07T03:20:30.454Z,29.43
2019-02-07T03:23:03.150Z,33.67
2019-02-07T03:25:35.773Z,31.80
2019-02-07T03:28:08.397Z,30.17
2019-02-07T03:30:41.044Z,34.67
2019-02-07T03:33:13.697Z,28.13
2019-02-07T03:35:46.340Z,32.70
2019-02-07T03:38:18.954Z,29.17
2019-02-07T03:40:52.065Z,26.83
2019-02-07T03:43:24.684Z,30.03
2019-02-07T03:46:02.752Z,28.73
2019-02-07T03:48:31.676Z,29.90
2019-02-07T03:51:04.867Z,29.27
2019-02-07T03:53:37.468Z,29.20
2019-02-07T03:56:10.513Z,30.07
2019-02-07T03:58:43.310Z,29.10
2019-02-07T04:01:15.941Z,30.73
2019-02-07T04:03:49.046Z,27.47
2019-02-07T04:06:21.797Z,30.87
2019-02-07T04:08:54.431Z,31.10
2019-02-07T04:11:27.109Z,26.40
2019-02-07T04:13:59.782Z,27.33
2019-02-07T04:16:32.429Z,28.47
2019-02-07T04:19:05.044Z,24.57
2019-02-07T04:21:37.686Z,27.33
2019-02-07T04:24:10.332Z,25.47
2019-02-07T04:26:43.229Z,28.90
2019-02-07T04:29:15.851Z,27.67
2019-02-07T04:31:48.508Z,29.10
2019-02-07T04:34:21.161Z,30.27
2019-02-07T04:36:53.965Z,26.73
2019-02-07T04:39:26.734Z,25.80
2019-02-07T04:41:59.398Z,25.57
2019-02-07T04:44:32.010Z,27.67
2019-02-07T04:47:04.642Z,26.97
2019-02-07T04:49:37.275Z,27.73
2019-02-07T04:52:09.971Z,28.87
2019-02-07T04:54:42.594Z,30.90
2019-02-07T04:57:15.242Z,23.53
2019-02-07T04:59:47.945Z,27.27
2019-02-07T05:02:20.862Z,24.87
2019-02-07T05:04:53.474Z,23.87
2019-02-07T05:07:26.106Z,24.87
2019-02-07T05:09:58.726Z,24.40
2019-02-07T05:12:31.357Z,26.93
2019-02-07T05:15:05.186Z,24.03
2019-02-07T05:17:37.836Z,24.07
2019-02-07T05:20:10.471Z,27.20
2019-02-07T05:22:43.297Z,27.27
2019-02-07T05:25:16.307Z,26.07
2019-02-07T05:27:48.965Z,21.43
2019-02-07T05:30:21.617Z,22.13
2019-02-07T05:32:54.250Z,23.77
2019-02-07T05:35:26.900Z,25.73
2019-02-07T05:37:59.851Z,21.60
2019-02-07T05:40:32.537Z,22.77
2019-02-07T05:43:05.168Z,21.87
2019-02-07T05:45:37.785Z,21.10
2019-02-07T05:48:10.473Z,23.57
2019-02-07T05:50:43.100Z,22.77
2019-02-07T05:53:15.769Z,23.70
2019-02-07T05:55:48.442Z,19.87
2019-02-07T05:58:21.082Z,21.00
2019-02-07T06:00:54.081Z,19.47
2019-02-07T06:03:26.717Z,20.47
2019-02-07T06:05:59.345Z,22.20
2019-02-07T06:08:32.039Z,20.03
2019-02-07T06:11:04.666Z,18.80
2019-02-07T06:13:37.672Z,22.20
2019-02-07T06:16:10.349Z,21.50
2019-02-07T06:18:42.994Z,19.63
2019-02-07T06:21:15.626Z,21.93
2019-02-07T06:23:48.257Z,20.43
2019-02-07T06:26:20.881Z,20.97
2019-02-07T06:28:53.510Z,23.67
2019-02-07T06:31:26.186Z,19.63
2019-02-07T06:33:58.814Z,19.67
2019-02-07T06:36:31.848Z,19.67
2019-02-07T06:39:08.742Z,23.83
2019-02-07T06:41:41.466Z,18.97
2019-02-07T06:44:14.146Z,18.17
2019-02-07T06:46:46.777Z,17.77
2019-02-07T06:49:19.438Z,17.67
2019-02-07T06:51:52.197Z,20.30
2019-02-07T06:54:24.835Z,17.47
2019-02-07T06:56:57.489Z,17.03
2019-02-07T06:59:30.626Z,19.37
2019-02-07T07:02:03.261Z,19.23
2019-02-07T07:04:35.974Z,17.63
2019-02-07T07:07:08.639Z,17.83
2019-02-07T07:09:41.335Z,21.27
2019-02-07T07:12:14.081Z,18.17
2019-02-07T07:14:46.833Z,19.43
2019-02-07T07:17:25.383Z,19.67
2019-02-07T07:19:53.837Z,17.73
2019-02-07T07:22:26.481Z,21.13
2019-02-07T07:24:59.174Z,19.83
2019-02-07T07:27:31.806Z,20.43
2019-02-07T07:30:06.974Z,20.63
2019-02-07T07:32:40.011Z,21.33
2019-02-07T07:35:12.661Z,20.77
2019-02-07T07:37:45.279Z,21.57
2019-02-07T07:40:17.909Z,23.00
2019-02-07T07:42:50.552Z,21.17
2019-02-07T07:45:23.206Z,24.03
2019-02-07T07:47:55.857Z,24.13
2019-02-07T07:50:28.511Z,26.43
2019-02-07T07:53:01.294Z,21.40
2019-02-07T07:55:34.565Z,20.10
2019-02-07T07:58:07.280Z,20.87
2019-02-07T08:00:39.914Z,20.83
2019-02-07T08:03:12.583Z,18.97
2019-02-07T08:05:45.225Z,20.67
2019-02-07T08:08:18.147Z,20.10
2019-02-07T08:10:50.842Z,18.17
2019-02-07T08:13:23.473Z,21.93
2019-02-07T08:15:56.224Z,21.20
2019-02-07T08:18:28.858Z,18.50
2019-02-07T08:21:01.499Z,18.17
2019-02-07T08:23:34.142Z,17.63
2019-02-07T08:26:06.767Z,15.03
2019-02-07T08:28:39.516Z,15.93
2019-02-07T08:31:12.438Z,14.13
2019-02-07T08:33:45.072Z,14.90
2019-02-07T08:36:17.751Z,16.43
2019-02-07T08:38:50.400Z,16.47
2019-02-07T08:41:23.039Z,15.83
2019-02-07T08:43:55.679Z,15.17
2019-02-07T08:46:28.317Z,13.70
2019-02-07T08:49:01.178Z,13.13
2019-02-07T08:51:34.129Z,11.93
2019-02-07T08:54:07.134Z,11.77
2019-02-07T08:56:39.788Z,13.40
2019-02-07T08:59:12.457Z,10.90
2019-02-07T09:01:45.110Z,11.87
2019-02-07T09:04:17.762Z,10.97
2019-02-07T09:06:50.414Z,8.43
2019-02-07T09:09:23.063Z,10.40
2019-02-07T09:11:56.061Z,6.57
2019-02-07T09:14:28.678Z,7.20
2019-02-07T09:17:01.306Z,5.43
2019-02-07T09:19:33.953Z,5.33
2019-02-07T09:22:06.634Z,5.17
2019-02-07T09:24:39.274Z,3.87
2019-02-07T09:27:11.919Z,5.20
2019-02-07T09:29:44.538Z,5.00
2019-02-07T09:32:17.262Z,6.10
2019-02-07T09:34:49.943Z,7.50
2019-02-07T09:37:22.588Z,7.07
2019-02-07T09:39:55.282Z,7.57
2019-02-07T09:42:27.930Z,7.93
2019-02-07T09:45:00.554Z,9.50
2019-02-07T09:47:33.195Z,9.57
2019-02-07T09:50:06.260Z,10.23
2019-02-07T09:52:39.273Z,10.63
2019-02-07T09:55:11.913Z,11.07
2019-02-07T09:57:44.582Z,13.40
2019-02-07T10:00:17.198Z,11.90
2019-02-07T10:02:49.830Z,14.30
2019-02-07T10:05:22.462Z,13.53
2019-02-07T10:07:55.093Z,14.47
2019-02-07T10:10:27.770Z,12.83
2019-02-07T10:13:00.428Z,16.53
2019-02-07T10:15:33.036Z,19.27
2019-02-07T10:18:05.737Z,15.87
2019-02-07T10:20:38.389Z,20.67
2019-02-07T10:23:11.025Z,16.83
2019-02-07T10:25:43.733Z,21.10
2019-02-07T10:28:16.757Z,22.47
2019-02-07T10:30:49.396Z,17.10
2019-02-07T10:33:22.029Z,22.53
2019-02-07T10:35:54.733Z,19.13
2019-02-07T10:38:27.383Z,17.60
2019-02-07T10:41:00.025Z,17.57
2019-02-07T10:43:32.677Z,23.63
2019-02-07T10:46:05.378Z,25.40
2019-02-07T10:48:44.510Z,17.03
2019-02-07T10:51:12.382Z,10.43
2019-02-07T10:53:45.086Z,19.23
2019-02-07T10:56:17.710Z,13.17
2019-02-07T10:58:50.346Z,10.83
2019-02-07T11:01:23.056Z,17.30
2019-02-07T11:03:55.697Z,11.30
2019-02-07T11:06:28.319Z,15.50
2019-02-07T11:09:00.989Z,15.90
2019-02-07T11:11:33.608Z,15.70
2019-02-07T11:14:06.733Z,21.77
2019-02-07T11:16:39.343Z,15.93
2019-02-07T11:19:21.108Z,19.63
2019-02-07T11:21:46.385Z,16.73
2019-02-07T11:24:19.046Z,18.07
2019-02-07T11:26:51.669Z,29.47
2019-02-07T11:29:24.311Z,20.97
2019-02-07T11:31:56.974Z,16.90
2019-02-07T11:34:29.650Z,18.30
2019-02-07T11:37:02.677Z,20.63
2019-02-07T11:39:35.322Z,19.00
2019-02-07T11:42:08.000Z,19.53
2019-02-07T11:44:41.007Z,18.50
2019-02-07T11:47:13.638Z,17.10
2019-02-07T11:49:46.283Z,19.07
2019-02-07T11:52:18.928Z,21.63
2019-02-07T11:54:51.557Z,20.93
2019-02-07T11:57:24.208Z,18.20
2019-02-07T11:59:57.742Z,21.87
2019-02-07T12:02:30.374Z,14.40
2019-02-07T12:05:03.030Z,19.33
2019-02-07T12:07:35.656Z,16.63
2019-02-07T12:10:11.194Z,16.37
2019-02-07T12:12:43.832Z,18.43
2019-02-07T12:15:16.483Z,21.03
2019-02-07T12:17:49.181Z,12.77
2019-02-07T12:20:23.016Z,17.90
2019-02-07T12:22:56.946Z,19.83
2019-02-07T12:25:30.550Z,21.13
2019-02-07T12:28:04.083Z,19.20
2019-02-07T12:30:37.693Z,17.90
2019-02-07T12:33:11.208Z,17.97
2019-02-07T12:35:44.341Z,23.33
2019-02-07T12:38:17.911Z,24.20
2019-02-07T12:40:51.497Z,17.73
2019-02-07T12:43:25.412Z,18.10
2019-02-07T12:45:59.106Z,19.37
2019-02-07T12:48:32.739Z,15.53
2019-02-07T12:51:06.921Z,19.30
2019-02-07T12:53:40.457Z,13.50
2019-02-07T12:56:14.217Z,20.23
2019-02-07T12:58:46.875Z,16.07
2019-02-07T13:01:19.617Z,28.03
2019-02-07T13:03:52.247Z,14.40
2019-02-07T13:06:24.880Z,20.10
2019-02-07T13:08:57.654Z,11.47
2019-02-07T13:11:30.293Z,17.40
2019-02-07T13:14:02.974Z,16.43
2019-02-07T13:16:35.765Z,22.00
2019-02-07T13:19:08.598Z,19.93
2019-02-07T13:21:41.400Z,18.17
2019-02-07T13:24:14.926Z,19.20
2019-02-07T13:26:49.625Z,16.67
2019-02-07T13:29:22.658Z,14.30
2019-02-07T13:31:55.324Z,19.47
2019-02-07T13:34:27.925Z,12.37
2019-02-07T13:37:00.658Z,21.60
2019-02-07T13:39:33.361Z,14.40
2019-02-07T13:42:06.259Z,25.00
2019-02-07T13:44:38.895Z,11.70
2019-02-07T13:47:20.301Z,18.23
2019-02-07T13:49:52.977Z,17.27
2019-02-07T13:52:25.609Z,13.63
2019-02-07T13:54:58.234Z,12.40
2019-02-07T13:57:30.898Z,10.97
2019-02-07T14:00:05.950Z,11.57
2019-02-07T14:02:38.860Z,11.47
2019-02-07T14:05:11.578Z,12.70
2019-02-07T14:07:44.680Z,10.33
2019-02-07T14:10:17.330Z,8.30
2019-02-07T14:12:49.958Z,17.07
2019-02-07T14:15:24.749Z,14.90
2019-02-07T14:17:57.499Z,13.60
2019-02-07T14:20:30.120Z,20.30
2019-02-07T14:23:02.837Z,14.80
2019-02-07T14:25:35.868Z,13.33
2019-02-07T14:28:08.543Z,15.57
2019-02-07T14:30:41.175Z,13.57
2019-02-07T14:33:13.853Z,11.43
2019-02-07T14:35:46.542Z,11.80
2019-02-07T14:38:19.208Z,15.37
2019-02-07T14:40:51.937Z,10.80
2019-02-07T14:43:24.574Z,10.73
2019-02-07T14:45:57.209Z,12.17
2019-02-07T14:48:30.217Z,13.90
2019-02-07T14:51:02.902Z,10.80
2019-02-07T14:53:35.585Z,11.60
2019-02-07T14:56:08.217Z,10.97
2019-02-07T14:58:42.567Z,13.57
2019-02-07T15:01:15.374Z,11.93
2019-02-07T15:03:48.054Z,10.07
2019-02-07T15:06:20.699Z,13.60
2019-02-07T15:08:53.330Z,18.53
2019-02-07T15:11:25.953Z,14.97
2019-02-07T15:13:58.622Z,10.80
2019-02-07T15:16:31.246Z,9.13
2019-02-07T15:19:03.912Z,9.43
2019-02-07T15:21:36.563Z,9.97
2019-02-07T15:24:09.605Z,12.70
2019-02-07T15:26:42.235Z,9.30
2019-02-07T15:29:16.094Z,17.60
2019-02-07T15:31:48.995Z,11.37
2019-02-07T15:34:21.622Z,9.60
2019-02-07T15:36:54.821Z,13.90
2019-02-07T15:39:27.449Z,10.70
2019-02-07T15:42:00.120Z,14.87
2019-02-07T15:44:32.762Z,13.83
2019-02-07T15:47:05.388Z,8.97
2019-02-07T15:49:38.053Z,11.60
2019-02-07T15:52:10.711Z,11.53
2019-02-07T15:54:43.449Z,8.80
2019-02-07T15:57:16.105Z,13.63
2019-02-07T15:59:48.749Z,20.87
2019-02-07T16:02:21.374Z,11.97
2019-02-07T16:04:54.006Z,14.13
2019-02-07T16:07:26.646Z,15.83
2019-02-07T16:09:59.346Z,17.00
2019-02-07T16:12:32.261Z,12.97
2019-02-07T16:15:05.661Z,13.87
2019-02-07T16:17:38.304Z,12.67
2019-02-07T16:20:13.651Z,15.37
2019-02-07T16:22:46.573Z,11.10
2019-02-07T16:25:19.211Z,13.03
2019-02-07T16:27:51.855Z,16.23
2019-02-07T16:30:24.549Z,17.83
2019-02-07T16:32:57.246Z,12.77
2019-02-07T16:35:30.090Z,17.20
2019-02-07T16:38:02.730Z,7.80
2019-02-07T16:40:35.380Z,12.60
2019-02-07T16:43:08.053Z,11.50
2019-02-07T16:45:40.682Z,14.57
2019-02-07T16:48:13.328Z,11.97
2019-02-07T16:50:46.058Z,10.93
2019-02-07T16:53:18.716Z,15.03
2019-02-07T16:55:51.361Z,12.90
2019-02-07T16:58:24.477Z,10.53
2019-02-07T17:00:57.113Z,16.80
2019-02-07T17:03:29.749Z,12.23
2019-02-07T17:06:02.403Z,13.60
2019-02-07T17:08:35.063Z,13.27
2019-02-07T17:11:07.901Z,13.87
2019-02-07T17:13:40.533Z,16.03
2019-02-07T17:16:13.161Z,16.57
2019-02-07T17:18:45.902Z,10.80
2019-02-07T17:21:18.707Z,10.60
2019-02-07T17:23:51.371Z,16.93
2019-02-07T17:26:24.046Z,11.20
2019-02-07T17:28:56.688Z,14.83
2019-02-07T17:31:29.341Z,18.73
2019-02-07T17:34:02.390Z,11.10
2019-02-07T17:36:35.034Z,12.53
2019-02-07T17:39:07.695Z,14.73
2019-02-07T17:41:40.317Z,9.47
2019-02-07T17:44:12.946Z,9.73
2019-02-07T17:46:45.672Z,13.03
2019-02-07T17:49:18.289Z,11.53
2019-02-07T17:51:50.976Z,13.70
2019-02-07T17:54:23.638Z,11.53
2019-02-07T17:56:56.286Z,11.37
2019-02-07T17:59:28.928Z,14.00
2019-02-07T18:02:01.590Z,16.37
2019-02-07T18:04:34.205Z,15.37
2019-02-07T18:07:06.865Z,13.77
2019-02-07T18:09:39.561Z,16.20
2019-02-07T18:12:12.206Z,17.80
2019-02-07T18:14:44.846Z,23.80
2019-02-07T18:17:17.496Z,13.30
2019-02-07T18:19:50.210Z,17.50
2019-02-07T18:22:23.318Z,16.70
2019-02-07T18:24:55.945Z,13.20
2019-02-07T18:27:28.717Z,10.87
2019-02-07T18:30:01.550Z,15.33
2019-02-07T18:32:34.206Z,19.43
2019-02-07T18:35:07.409Z,18.60
2019-02-07T18:37:40.111Z,14.77
2019-02-07T18:40:15.678Z,12.73
2019-02-07T18:42:48.314Z,18.67
2019-02-07T18:45:21.285Z,26.80
2019-02-07T18:47:53.960Z,19.40
2019-02-07T18:50:29.056Z,17.70
2019-02-07T18:53:01.794Z,21.80
2019-02-07T18:55:34.434Z,14.30
2019-02-07T18:58:07.942Z,16.80
2019-02-07T19:00:40.572Z,19.27
2019-02-07T19:03:13.274Z,14.37
2019-02-07T19:05:45.901Z,11.03
2019-02-07T19:08:18.537Z,10.37
2019-02-07T19:10:51.158Z,10.80
2019-02-07T19:13:23.808Z,12.00
2019-02-07T19:16:03.455Z,5.90
2019-02-07T19:18:36.185Z,8.60
2019-02-07T19:21:09.203Z,7.80
2019-02-07T19:23:41.842Z,8.77
2019-02-07T19:26:14.894Z,11.20
2019-02-07T19:28:47.528Z,9.13
2019-02-07T19:31:20.287Z,5.80
2019-02-07T19:33:53.017Z,7.20
2019-02-07T19:36:25.643Z,6.17
2019-02-07T19:38:58.301Z,6.97
2019-02-07T19:41:30.983Z,6.27
2019-02-07T19:44:03.933Z,8.00
2019-02-07T19:46:36.581Z,8.03
2019-02-07T19:49:09.254Z,6.80
2019-02-07T19:51:41.862Z,6.10
2019-02-07T19:54:14.502Z,6.60
2019-02-07T19:56:47.527Z,5.60
2019-02-07T19:59:20.158Z,5.40
2019-02-07T20:01:52.790Z,6.23
2019-02-07T20:04:25.420Z,9.27
2019-02-07T20:06:58.052Z,6.17
2019-02-07T20:09:31.174Z,7.63
2019-02-07T20:12:03.907Z,7.40
2019-02-07T20:14:36.543Z,7.83
2019-02-07T20:17:09.269Z,9.17
2019-02-07T20:19:41.919Z,7.37
2019-02-07T20:22:20.231Z,5.90
2019-02-07T20:24:49.281Z,10.33
2019-02-07T20:27:21.917Z,11.77
2019-02-07T20:29:54.591Z,6.70
2019-02-07T20:32:27.218Z,10.53
2019-02-07T20:35:00.338Z,8.47
2019-02-07T20:37:32.987Z,7.40
2019-02-07T20:40:05.641Z,10.83
2019-02-07T20:42:38.268Z,12.17
2019-02-07T20:45:11.274Z,10.37
2019-02-07T20:47:44.282Z,10.80
2019-02-07T20:50:18.799Z,9.00
2019-02-07T20:52:51.770Z,13.10
2019-02-07T20:55:24.399Z,10.07
2019-02-07T20:57:57.207Z,7.23
2019-02-07T21:00:34.354Z,7.70
2019-02-07T21:03:07.065Z,11.97
2019-02-07T21:05:39.720Z,7.97
2019-02-07T21:08:12.350Z,12.03
2019-02-07T21:10:45.087Z,8.13
2019-02-07T21:13:17.755Z,8.83
2019-02-07T21:15:50.447Z,9.93
2019-02-07T21:18:23.138Z,10.87
2019-02-07T21:20:55.784Z,13.27
2019-02-07T21:23:28.477Z,10.87
2019-02-07T21:26:01.142Z,12.60
2019-02-07T21:28:33.761Z,10.70
2019-02-07T21:31:06.409Z,8.87
2019-02-07T21:33:39.045Z,12.53
2019-02-07T21:36:11.698Z,9.33
2019-02-07T21:38:44.346Z,10.20
2019-02-07T21:41:16.985Z,8.37
2019-02-07T21:43:49.630Z,11.33
2019-02-07T21:46:22.274Z,8.80
2019-02-07T21:48:54.906Z,9.07
2019-02-07T21:51:27.624Z,9.67
2019-02-07T21:54:00.307Z,9.53
2019-02-07T21:56:32.961Z,8.17
2019-02-07T21:59:05.602Z,6.97
2019-02-07T22:01:38.250Z,7.33
2019-02-07T22:04:10.881Z,6.50
2019-02-07T22:06:43.549Z,6.97
2019-02-07T22:09:16.214Z,10.13
2019-02-07T22:11:48.893Z,7.50
2019-02-07T22:14:21.797Z,6.60
2019-02-07T22:16:54.444Z,6.60
2019-02-07T22:19:27.137Z,9.77
2019-02-07T22:21:59.899Z,6.30
2019-02-07T22:24:32.632Z,9.70
2019-02-07T22:27:05.662Z,12.93
2019-02-07T22:29:38.309Z,5.60
2019-02-07T22:32:10.982Z,7.97
2019-02-07T22:34:43.613Z,10.30
2019-02-07T22:37:16.279Z,8.57
2019-02-07T22:39:48.897Z,7.50
2019-02-07T22:42:21.541Z,10.50
2019-02-07T22:44:54.213Z,10.63
2019-02-07T22:47:26.842Z,8.30
2019-02-07T22:49:59.470Z,9.37
2019-02-07T22:52:32.098Z,5.13
2019-02-07T22:55:05.149Z,9.03
2019-02-07T22:57:37.791Z,9.43
2019-02-07T23:01:06.461Z,9.60
2019-02-07T23:03:58.781Z,6.30
2019-02-07T23:06:31.406Z,7.93
2019-02-07T23:09:07.317Z,8.70
2019-02-07T23:11:39.945Z,4.67
2019-02-07T23:14:12.953Z,10.63
2019-02-07T23:16:45.586Z,6.10
2019-02-07T23:19:18.253Z,7.97
2019-02-07T23:21:50.886Z,10.23
2019-02-07T23:24:23.522Z,8.20
2019-02-07T23:26:56.317Z,7.63
2019-02-07T23:29:28.958Z,7.87
2019-02-07T23:32:01.591Z,8.67
2019-02-07T23:34:34.258Z,8.03
2019-02-07T23:37:06.885Z,7.70
2019-02-07T23:39:39.524Z,10.03
2019-02-07T23:42:12.176Z,5.73
2019-02-07T23:44:44.805Z,7.03
2019-02-07T23:47:17.418Z,6.87
2019-02-07T23:49:50.139Z,3.90
2019-02-07T23:52:22.809Z,8.27
2019-02-07T23:54:55.438Z,9.53
2019-02-07T23:57:28.072Z,9.17
